sensor_id;sensor_type;location;lat;lon;timestamp;P1;durP1;ratioP1;P2;durP2;ratioP2
70071;SDS011;57434;42.794;23.302;2022-10-31T00:01:12;9.40;;;4.17;;
70071;SDS011;57434;42.794;23.302;2022-10-31T00:03:45;10.15;;;3.65;;
70071;SDS011;57434;42.794;23.302;2022-10-31T00:06:12;8.73;;;4.15;;
70071;SDS011;57434;42.794;23.302;2022-10-31T00:08:39;8.60;;;3.78;;
70071;SDS011;57434;42.794;23.302;2022-10-31T00:11:09;11.90;;;4.90;;
70071;SDS011;57434;42.794;23.302;2022-10-31T00:13:37;9.03;;;4.20;;
70071;SDS011;57434;42.794;23.302;2022-10-31T00:16:04;8.38;;;3.85;;
70071;SDS011;57434;42.794;23.302;2022-10-31T00:18:31;9.35;;;4.38;;
70071;SDS011;57434;42.794;23.302;2022-10-31T00:21:02;9.05;;;3.60;;
70071;SDS011;57434;42.794;23.302;2022-10-31T00:23:30;8.15;;;3.90;;
70071;SDS011;57434;42.794;23.302;2022-10-31T00:26:06;11.47;;;3.67;;
70071;SDS011;57434;42.794;23.302;2022-10-31T00:28:33;8.70;;;3.90;;
70071;SDS011;57434;42.794;23.302;2022-10-31T00:31:00;10.00;;;4.32;;
70071;SDS011;57434;42.794;23.302;2022-10-31T00:33:29;14.85;;;4.70;;
70071;SDS011;57434;42.794;23.302;2022-10-31T00:35:56;15.00;;;3.85;;
70071;SDS011;57434;42.794;23.302;2022-10-31T00:38:23;10.07;;;3.80;;
70071;SDS011;57434;42.794;23.302;2022-10-31T00:40:50;13.52;;;4.40;;
70071;SDS011;57434;42.794;23.302;2022-10-31T00:43:18;15.43;;;5.55;;
70071;SDS011;57434;42.794;23.302;2022-10-31T00:45:45;10.13;;;4.82;;
70071;SDS011;57434;42.794;23.302;2022-10-31T00:48:12;11.55;;;4.60;;
70071;SDS011;57434;42.794;23.302;2022-10-31T00:50:39;12.70;;;5.00;;
70071;SDS011;57434;42.794;23.302;2022-10-31T00:53:07;13.63;;;4.95;;
70071;SDS011;57434;42.794;23.302;2022-10-31T00:55:34;11.32;;;4.72;;
70071;SDS011;57434;42.794;23.302;2022-10-31T00:58:01;10.45;;;4.55;;
70071;SDS011;57434;42.794;23.302;2022-10-31T01:00:29;11.30;;;4.75;;
70071;SDS011;57434;42.794;23.302;2022-10-31T01:02:56;10.53;;;4.73;;
70071;SDS011;57434;42.794;23.302;2022-10-31T01:05:24;9.40;;;4.72;;
70071;SDS011;57434;42.794;23.302;2022-10-31T01:07:51;12.10;;;4.78;;
70071;SDS011;57434;42.794;23.302;2022-10-31T01:10:18;10.95;;;5.10;;
70071;SDS011;57434;42.794;23.302;2022-10-31T01:12:46;9.38;;;4.57;;
70071;SDS011;57434;42.794;23.302;2022-10-31T01:15:16;13.37;;;5.00;;
70071;SDS011;57434;42.794;23.302;2022-10-31T01:17:46;9.05;;;3.95;;
70071;SDS011;57434;42.794;23.302;2022-10-31T01:20:14;9.90;;;4.55;;
70071;SDS011;57434;42.794;23.302;2022-10-31T01:22:42;10.75;;;4.85;;
70071;SDS011;57434;42.794;23.302;2022-10-31T01:25:09;10.75;;;5.00;;
70071;SDS011;57434;42.794;23.302;2022-10-31T01:27:36;12.73;;;4.90;;
70071;SDS011;57434;42.794;23.302;2022-10-31T01:30:04;15.85;;;5.15;;
70071;SDS011;57434;42.794;23.302;2022-10-31T01:32:31;12.30;;;5.00;;
70071;SDS011;57434;42.794;23.302;2022-10-31T01:34:58;13.95;;;4.40;;
70071;SDS011;57434;42.794;23.302;2022-10-31T01:37:25;10.52;;;4.50;;
70071;SDS011;57434;42.794;23.302;2022-10-31T01:39:52;11.77;;;4.97;;
70071;SDS011;57434;42.794;23.302;2022-10-31T01:42:20;11.45;;;4.70;;
70071;SDS011;57434;42.794;23.302;2022-10-31T01:44:52;10.20;;;4.30;;
70071;SDS011;57434;42.794;23.302;2022-10-31T01:47:30;10.98;;;4.32;;
70071;SDS011;57434;42.794;23.302;2022-10-31T01:50:00;10.43;;;4.90;;
70071;SDS011;57434;42.794;23.302;2022-10-31T01:52:41;11.63;;;4.60;;
70071;SDS011;57434;42.794;23.302;2022-10-31T01:57:40;10.90;;;4.00;;
70071;SDS011;57434;42.794;23.302;2022-10-31T02:00:10;9.95;;;4.15;;
70071;SDS011;57434;42.794;23.302;2022-10-31T02:02:37;8.90;;;4.18;;
70071;SDS011;57434;42.794;23.302;2022-10-31T02:05:06;10.40;;;4.93;;
70071;SDS011;57434;42.794;23.302;2022-10-31T02:07:45;13.45;;;5.53;;
70071;SDS011;57434;42.794;23.302;2022-10-31T02:10:20;14.52;;;4.47;;
70071;SDS011;57434;42.794;23.302;2022-10-31T02:12:49;11.05;;;5.20;;
70071;SDS011;57434;42.794;23.302;2022-10-31T02:15:18;13.63;;;5.47;;
70071;SDS011;57434;42.794;23.302;2022-10-31T02:17:45;12.63;;;5.77;;
70071;SDS011;57434;42.794;23.302;2022-10-31T02:20:19;9.20;;;4.90;;
70071;SDS011;57434;42.794;23.302;2022-10-31T02:33:53;12.32;;;4.60;;
70071;SDS011;57434;42.794;23.302;2022-10-31T02:39:24;9.13;;;3.97;;
70071;SDS011;57434;42.794;23.302;2022-10-31T02:44:57;10.10;;;4.63;;
70071;SDS011;57434;42.794;23.302;2022-10-31T02:47:38;10.98;;;5.20;;
70071;SDS011;57434;42.794;23.302;2022-10-31T02:50:10;11.18;;;5.38;;
70071;SDS011;57434;42.794;23.302;2022-10-31T02:52:40;11.80;;;5.05;;
70071;SDS011;57434;42.794;23.302;2022-10-31T02:55:11;11.55;;;5.88;;
70071;SDS011;57434;42.794;23.302;2022-10-31T02:57:52;12.70;;;5.73;;
70071;SDS011;57434;42.794;23.302;2022-10-31T03:00:30;11.23;;;5.50;;
70071;SDS011;57434;42.794;23.302;2022-10-31T03:03:08;12.52;;;6.50;;
70071;SDS011;57434;42.794;23.302;2022-10-31T03:11:01;11.30;;;6.07;;
70071;SDS011;57434;42.794;23.302;2022-10-31T03:13:41;14.48;;;6.53;;
70071;SDS011;57434;42.794;23.302;2022-10-31T03:16:44;13.38;;;6.70;;
70071;SDS011;57434;42.794;23.302;2022-10-31T03:19:15;12.73;;;6.38;;
70071;SDS011;57434;42.794;23.302;2022-10-31T03:22:11;13.85;;;6.25;;
70071;SDS011;57434;42.794;23.302;2022-10-31T03:24:44;12.10;;;5.43;;
70071;SDS011;57434;42.794;23.302;2022-10-31T03:27:13;13.70;;;6.35;;
70071;SDS011;57434;42.794;23.302;2022-10-31T03:29:43;11.45;;;6.20;;
70071;SDS011;57434;42.794;23.302;2022-10-31T03:32:19;13.90;;;6.00;;
70071;SDS011;57434;42.794;23.302;2022-10-31T03:34:48;11.98;;;5.90;;
70071;SDS011;57434;42.794;23.302;2022-10-31T03:37:18;15.07;;;5.97;;
70071;SDS011;57434;42.794;23.302;2022-10-31T03:39:47;12.05;;;5.45;;
70071;SDS011;57434;42.794;23.302;2022-10-31T03:42:18;12.48;;;5.82;;
70071;SDS011;57434;42.794;23.302;2022-10-31T03:44:54;11.27;;;6.05;;
70071;SDS011;57434;42.794;23.302;2022-10-31T03:47:25;14.98;;;6.65;;
70071;SDS011;57434;42.794;23.302;2022-10-31T03:49:52;11.70;;;5.83;;
70071;SDS011;57434;42.794;23.302;2022-10-31T03:52:25;12.98;;;5.55;;
70071;SDS011;57434;42.794;23.302;2022-10-31T03:55:10;11.95;;;6.03;;
70071;SDS011;57434;42.794;23.302;2022-10-31T03:57:55;11.93;;;5.72;;
70071;SDS011;57434;42.794;23.302;2022-10-31T04:00:27;16.17;;;6.25;;
70071;SDS011;57434;42.794;23.302;2022-10-31T04:02:58;15.17;;;6.60;;
70071;SDS011;57434;42.794;23.302;2022-10-31T04:05:27;16.23;;;7.38;;
70071;SDS011;57434;42.794;23.302;2022-10-31T04:07:57;14.52;;;5.85;;
70071;SDS011;57434;42.794;23.302;2022-10-31T04:10:26;11.90;;;6.15;;
70071;SDS011;57434;42.794;23.302;2022-10-31T04:13:01;13.15;;;5.40;;
70071;SDS011;57434;42.794;23.302;2022-10-31T04:15:34;14.57;;;5.57;;
70071;SDS011;57434;42.794;23.302;2022-10-31T04:18:04;10.88;;;4.90;;
70071;SDS011;57434;42.794;23.302;2022-10-31T04:20:36;12.02;;;5.57;;
70071;SDS011;57434;42.794;23.302;2022-10-31T04:23:04;13.50;;;5.63;;
70071;SDS011;57434;42.794;23.302;2022-10-31T04:25:43;12.82;;;5.28;;
70071;SDS011;57434;42.794;23.302;2022-10-31T04:28:10;10.60;;;5.23;;
70071;SDS011;57434;42.794;23.302;2022-10-31T04:30:37;12.98;;;5.63;;
70071;SDS011;57434;42.794;23.302;2022-10-31T04:33:04;12.52;;;4.88;;
70071;SDS011;57434;42.794;23.302;2022-10-31T04:35:31;13.35;;;5.10;;
70071;SDS011;57434;42.794;23.302;2022-10-31T04:37:58;10.15;;;4.90;;
70071;SDS011;57434;42.794;23.302;2022-10-31T04:40:25;11.40;;;5.00;;
70071;SDS011;57434;42.794;23.302;2022-10-31T04:42:52;11.82;;;4.75;;
70071;SDS011;57434;42.794;23.302;2022-10-31T04:45:19;12.70;;;5.10;;
70071;SDS011;57434;42.794;23.302;2022-10-31T04:47:46;12.88;;;5.20;;
70071;SDS011;57434;42.794;23.302;2022-10-31T04:50:14;16.92;;;5.38;;
70071;SDS011;57434;42.794;23.302;2022-10-31T04:52:41;14.50;;;5.07;;
70071;SDS011;57434;42.794;23.302;2022-10-31T04:55:10;12.77;;;6.18;;
70071;SDS011;57434;42.794;23.302;2022-10-31T04:57:42;15.75;;;6.38;;
70071;SDS011;57434;42.794;23.302;2022-10-31T05:00:10;14.18;;;5.25;;
70071;SDS011;57434;42.794;23.302;2022-10-31T05:02:57;15.13;;;5.25;;
70071;SDS011;57434;42.794;23.302;2022-10-31T05:05:26;9.67;;;4.83;;
70071;SDS011;57434;42.794;23.302;2022-10-31T05:07:55;14.98;;;4.82;;
70071;SDS011;57434;42.794;23.302;2022-10-31T05:10:24;18.90;;;8.63;;
70071;SDS011;57434;42.794;23.302;2022-10-31T05:12:56;10.70;;;5.97;;
70071;SDS011;57434;42.794;23.302;2022-10-31T05:15:25;10.70;;;4.93;;
70071;SDS011;57434;42.794;23.302;2022-10-31T05:17:54;12.20;;;5.20;;
70071;SDS011;57434;42.794;23.302;2022-10-31T05:20:22;10.93;;;5.35;;
70071;SDS011;57434;42.794;23.302;2022-10-31T05:22:52;15.38;;;8.38;;
70071;SDS011;57434;42.794;23.302;2022-10-31T05:25:21;13.13;;;5.35;;
70071;SDS011;57434;42.794;23.302;2022-10-31T05:27:50;11.88;;;5.72;;
70071;SDS011;57434;42.794;23.302;2022-10-31T05:30:19;13.87;;;6.77;;
70071;SDS011;57434;42.794;23.302;2022-10-31T05:32:49;19.27;;;6.20;;
70071;SDS011;57434;42.794;23.302;2022-10-31T05:35:21;23.55;;;6.20;;
70071;SDS011;57434;42.794;23.302;2022-10-31T05:37:49;16.73;;;7.53;;
70071;SDS011;57434;42.794;23.302;2022-10-31T05:40:17;21.63;;;9.10;;
70071;SDS011;57434;42.794;23.302;2022-10-31T05:42:45;20.70;;;9.73;;
70071;SDS011;57434;42.794;23.302;2022-10-31T05:45:14;18.00;;;9.65;;
70071;SDS011;57434;42.794;23.302;2022-10-31T05:47:42;14.77;;;7.93;;
70071;SDS011;57434;42.794;23.302;2022-10-31T05:50:16;17.55;;;6.45;;
70071;SDS011;57434;42.794;23.302;2022-10-31T05:52:43;14.60;;;6.70;;
70071;SDS011;57434;42.794;23.302;2022-10-31T05:55:10;19.23;;;7.17;;
70071;SDS011;57434;42.794;23.302;2022-10-31T05:57:37;17.10;;;7.00;;
70071;SDS011;57434;42.794;23.302;2022-10-31T06:00:05;13.57;;;7.18;;
70071;SDS011;57434;42.794;23.302;2022-10-31T06:02:32;14.10;;;7.82;;
70071;SDS011;57434;42.794;23.302;2022-10-31T06:05:00;12.45;;;6.53;;
70071;SDS011;57434;42.794;23.302;2022-10-31T06:07:31;19.07;;;7.37;;
70071;SDS011;57434;42.794;23.302;2022-10-31T06:09:59;13.20;;;7.38;;
70071;SDS011;57434;42.794;23.302;2022-10-31T06:12:27;16.90;;;7.85;;
70071;SDS011;57434;42.794;23.302;2022-10-31T06:14:56;13.43;;;6.13;;
70071;SDS011;57434;42.794;23.302;2022-10-31T06:17:23;16.92;;;6.05;;
70071;SDS011;57434;42.794;23.302;2022-10-31T06:19:50;15.57;;;5.40;;
70071;SDS011;57434;42.794;23.302;2022-10-31T06:22:17;14.55;;;5.70;;
70071;SDS011;57434;42.794;23.302;2022-10-31T06:24:44;10.05;;;4.70;;
70071;SDS011;57434;42.794;23.302;2022-10-31T06:27:11;12.50;;;4.85;;
70071;SDS011;57434;42.794;23.302;2022-10-31T06:29:38;12.25;;;4.65;;
70071;SDS011;57434;42.794;23.302;2022-10-31T06:32:05;9.67;;;4.37;;
70071;SDS011;57434;42.794;23.302;2022-10-31T06:34:32;9.82;;;4.57;;
70071;SDS011;57434;42.794;23.302;2022-10-31T06:36:59;15.00;;;5.10;;
70071;SDS011;57434;42.794;23.302;2022-10-31T06:39:26;13.02;;;5.88;;
70071;SDS011;57434;42.794;23.302;2022-10-31T06:41:53;14.65;;;5.47;;
70071;SDS011;57434;42.794;23.302;2022-10-31T06:44:20;11.97;;;5.17;;
70071;SDS011;57434;42.794;23.302;2022-10-31T06:46:47;12.07;;;5.60;;
70071;SDS011;57434;42.794;23.302;2022-10-31T06:49:15;12.45;;;5.80;;
70071;SDS011;57434;42.794;23.302;2022-10-31T06:51:42;11.45;;;6.53;;
70071;SDS011;57434;42.794;23.302;2022-10-31T06:54:09;15.27;;;5.93;;
70071;SDS011;57434;42.794;23.302;2022-10-31T06:56:36;13.70;;;5.43;;
70071;SDS011;57434;42.794;23.302;2022-10-31T06:59:04;12.85;;;5.88;;
70071;SDS011;57434;42.794;23.302;2022-10-31T07:01:31;12.70;;;6.50;;
70071;SDS011;57434;42.794;23.302;2022-10-31T07:03:58;17.10;;;7.25;;
70071;SDS011;57434;42.794;23.302;2022-10-31T07:06:25;14.23;;;7.20;;
70071;SDS011;57434;42.794;23.302;2022-10-31T07:08:53;21.57;;;8.93;;
70071;SDS011;57434;42.794;23.302;2022-10-31T07:11:20;16.23;;;7.60;;
70071;SDS011;57434;42.794;23.302;2022-10-31T07:13:47;15.23;;;7.05;;
70071;SDS011;57434;42.794;23.302;2022-10-31T07:16:14;11.57;;;6.53;;
70071;SDS011;57434;42.794;23.302;2022-10-31T07:18:42;12.60;;;5.50;;
70071;SDS011;57434;42.794;23.302;2022-10-31T07:21:09;13.70;;;6.23;;
70071;SDS011;57434;42.794;23.302;2022-10-31T07:23:36;11.82;;;5.38;;
70071;SDS011;57434;42.794;23.302;2022-10-31T07:26:03;12.00;;;6.45;;
70071;SDS011;57434;42.794;23.302;2022-10-31T07:28:30;12.55;;;5.88;;
70071;SDS011;57434;42.794;23.302;2022-10-31T07:30:57;16.90;;;6.68;;
70071;SDS011;57434;42.794;23.302;2022-10-31T07:33:24;23.90;;;13.70;;
70071;SDS011;57434;42.794;23.302;2022-10-31T07:35:52;21.25;;;11.27;;
70071;SDS011;57434;42.794;23.302;2022-10-31T07:38:20;13.77;;;6.60;;
70071;SDS011;57434;42.794;23.302;2022-10-31T07:40:49;13.80;;;6.32;;
70071;SDS011;57434;42.794;23.302;2022-10-31T07:43:17;11.95;;;6.93;;
70071;SDS011;57434;42.794;23.302;2022-10-31T07:45:51;13.60;;;7.10;;
70071;SDS011;57434;42.794;23.302;2022-10-31T07:48:19;16.02;;;6.55;;
70071;SDS011;57434;42.794;23.302;2022-10-31T07:50:47;17.60;;;7.97;;
70071;SDS011;57434;42.794;23.302;2022-10-31T07:53:14;18.13;;;7.88;;
70071;SDS011;57434;42.794;23.302;2022-10-31T07:55:43;15.43;;;7.72;;
70071;SDS011;57434;42.794;23.302;2022-10-31T07:58:13;12.77;;;6.97;;
70071;SDS011;57434;42.794;23.302;2022-10-31T08:00:44;15.05;;;7.82;;
70071;SDS011;57434;42.794;23.302;2022-10-31T08:03:13;18.33;;;8.18;;
70071;SDS011;57434;42.794;23.302;2022-10-31T08:05:45;15.02;;;7.25;;
70071;SDS011;57434;42.794;23.302;2022-10-31T08:08:13;16.17;;;7.93;;
70071;SDS011;57434;42.794;23.302;2022-10-31T08:10:41;15.60;;;8.20;;
70071;SDS011;57434;42.794;23.302;2022-10-31T08:13:12;14.13;;;6.75;;
70071;SDS011;57434;42.794;23.302;2022-10-31T08:15:40;12.13;;;6.80;;
70071;SDS011;57434;42.794;23.302;2022-10-31T08:18:12;12.73;;;6.43;;
70071;SDS011;57434;42.794;23.302;2022-10-31T08:20:41;13.60;;;6.22;;
70071;SDS011;57434;42.794;23.302;2022-10-31T08:23:10;12.97;;;6.47;;
70071;SDS011;57434;42.794;23.302;2022-10-31T08:25:38;14.57;;;8.15;;
70071;SDS011;57434;42.794;23.302;2022-10-31T08:28:06;13.73;;;7.32;;
70071;SDS011;57434;42.794;23.302;2022-10-31T08:30:35;14.50;;;7.53;;
70071;SDS011;57434;42.794;23.302;2022-10-31T08:33:11;13.52;;;7.38;;
70071;SDS011;57434;42.794;23.302;2022-10-31T08:35:41;13.70;;;7.33;;
70071;SDS011;57434;42.794;23.302;2022-10-31T08:38:09;14.07;;;7.13;;
70071;SDS011;57434;42.794;23.302;2022-10-31T08:40:37;15.45;;;7.30;;
70071;SDS011;57434;42.794;23.302;2022-10-31T08:43:06;13.45;;;7.50;;
70071;SDS011;57434;42.794;23.302;2022-10-31T08:45:41;12.82;;;6.53;;
70071;SDS011;57434;42.794;23.302;2022-10-31T08:48:13;11.00;;;6.10;;
70071;SDS011;57434;42.794;23.302;2022-10-31T08:50:42;11.63;;;6.50;;
70071;SDS011;57434;42.794;23.302;2022-10-31T08:53:14;12.13;;;6.30;;
70071;SDS011;57434;42.794;23.302;2022-10-31T08:55:43;13.63;;;6.20;;
70071;SDS011;57434;42.794;23.302;2022-10-31T08:58:13;13.55;;;6.43;;
70071;SDS011;57434;42.794;23.302;2022-10-31T09:00:43;12.37;;;7.13;;
70071;SDS011;57434;42.794;23.302;2022-10-31T09:03:13;16.00;;;7.20;;
70071;SDS011;57434;42.794;23.302;2022-10-31T09:05:47;10.88;;;6.05;;
70071;SDS011;57434;42.794;23.302;2022-10-31T09:08:16;19.40;;;12.45;;
70071;SDS011;57434;42.794;23.302;2022-10-31T09:10:43;11.63;;;6.38;;
70071;SDS011;57434;42.794;23.302;2022-10-31T09:13:11;18.23;;;7.03;;
70071;SDS011;57434;42.794;23.302;2022-10-31T09:15:41;12.57;;;7.07;;
70071;SDS011;57434;42.794;23.302;2022-10-31T09:18:09;18.55;;;7.63;;
70071;SDS011;57434;42.794;23.302;2022-10-31T09:20:37;12.50;;;6.70;;
70071;SDS011;57434;42.794;23.302;2022-10-31T09:23:06;11.70;;;6.25;;
70071;SDS011;57434;42.794;23.302;2022-10-31T09:25:38;10.43;;;5.63;;
70071;SDS011;57434;42.794;23.302;2022-10-31T09:28:05;15.57;;;7.50;;
70071;SDS011;57434;42.794;23.302;2022-10-31T09:30:35;14.38;;;7.22;;
70071;SDS011;57434;42.794;23.302;2022-10-31T09:33:04;13.45;;;6.63;;
70071;SDS011;57434;42.794;23.302;2022-10-31T09:35:36;16.38;;;7.47;;
70071;SDS011;57434;42.794;23.302;2022-10-31T09:38:05;14.37;;;6.17;;
70071;SDS011;57434;42.794;23.302;2022-10-31T09:40:57;11.18;;;5.60;;
70071;SDS011;57434;42.794;23.302;2022-10-31T09:46:28;13.07;;;6.82;;
70071;SDS011;57434;42.794;23.302;2022-10-31T09:54:26;11.95;;;5.57;;
70071;SDS011;57434;42.794;23.302;2022-10-31T09:56:56;14.57;;;6.15;;
70071;SDS011;57434;42.794;23.302;2022-10-31T09:59:26;10.13;;;4.75;;
70071;SDS011;57434;42.794;23.302;2022-10-31T10:02:12;8.45;;;4.25;;
70071;SDS011;57434;42.794;23.302;2022-10-31T10:04:59;14.43;;;5.03;;
70071;SDS011;57434;42.794;23.302;2022-10-31T10:10:35;12.48;;;5.07;;
70071;SDS011;57434;42.794;23.302;2022-10-31T10:18:54;12.37;;;4.43;;
70071;SDS011;57434;42.794;23.302;2022-10-31T10:21:45;9.27;;;4.88;;
70071;SDS011;57434;42.794;23.302;2022-10-31T10:29:37;10.40;;;4.57;;
70071;SDS011;57434;42.794;23.302;2022-10-31T10:32:28;27.20;;;6.77;;
70071;SDS011;57434;42.794;23.302;2022-10-31T10:38:14;8.25;;;4.22;;
70071;SDS011;57434;42.794;23.302;2022-10-31T10:40:42;10.95;;;4.68;;
70071;SDS011;57434;42.794;23.302;2022-10-31T10:46:19;10.60;;;4.40;;
70071;SDS011;57434;42.794;23.302;2022-10-31T10:49:00;7.93;;;3.85;;
70071;SDS011;57434;42.794;23.302;2022-10-31T10:51:46;8.88;;;4.88;;
70071;SDS011;57434;42.794;23.302;2022-10-31T10:57:32;10.70;;;4.20;;
70071;SDS011;57434;42.794;23.302;2022-10-31T11:00:19;12.07;;;4.47;;
70071;SDS011;57434;42.794;23.302;2022-10-31T11:02:51;10.13;;;3.97;;
70071;SDS011;57434;42.794;23.302;2022-10-31T11:08:26;9.02;;;4.07;;
70071;SDS011;57434;42.794;23.302;2022-10-31T11:10:59;10.45;;;4.30;;
70071;SDS011;57434;42.794;23.302;2022-10-31T11:13:30;10.17;;;4.07;;
70071;SDS011;57434;42.794;23.302;2022-10-31T11:18:30;9.57;;;4.30;;
70071;SDS011;57434;42.794;23.302;2022-10-31T11:21:00;12.30;;;4.70;;
70071;SDS011;57434;42.794;23.302;2022-10-31T11:23:29;9.18;;;4.80;;
70071;SDS011;57434;42.794;23.302;2022-10-31T11:26:04;8.57;;;3.90;;
70071;SDS011;57434;42.794;23.302;2022-10-31T11:28:33;9.48;;;4.57;;
70071;SDS011;57434;42.794;23.302;2022-10-31T11:31:01;7.55;;;3.30;;
70071;SDS011;57434;42.794;23.302;2022-10-31T11:33:39;11.40;;;3.75;;
70071;SDS011;57434;42.794;23.302;2022-10-31T11:36:16;12.50;;;3.70;;
70071;SDS011;57434;42.794;23.302;2022-10-31T11:38:48;9.03;;;4.03;;
70071;SDS011;57434;42.794;23.302;2022-10-31T11:41:17;6.68;;;3.72;;
70071;SDS011;57434;42.794;23.302;2022-10-31T11:46:30;9.35;;;4.50;;
70071;SDS011;57434;42.794;23.302;2022-10-31T11:49:02;10.43;;;4.25;;
70071;SDS011;57434;42.794;23.302;2022-10-31T11:51:32;8.53;;;4.00;;
70071;SDS011;57434;42.794;23.302;2022-10-31T11:54:01;10.52;;;4.18;;
70071;SDS011;57434;42.794;23.302;2022-10-31T11:56:37;9.30;;;4.30;;
70071;SDS011;57434;42.794;23.302;2022-10-31T11:59:14;8.02;;;4.20;;
70071;SDS011;57434;42.794;23.302;2022-10-31T12:01:54;8.35;;;4.00;;
70071;SDS011;57434;42.794;23.302;2022-10-31T12:04:44;9.17;;;4.30;;
70071;SDS011;57434;42.794;23.302;2022-10-31T12:07:13;9.77;;;4.28;;
70071;SDS011;57434;42.794;23.302;2022-10-31T12:09:40;9.20;;;4.70;;
70071;SDS011;57434;42.794;23.302;2022-10-31T12:15:02;11.20;;;3.95;;
70071;SDS011;57434;42.794;23.302;2022-10-31T12:17:56;9.40;;;4.20;;
70071;SDS011;57434;42.794;23.302;2022-10-31T12:38:14;11.48;;;4.10;;
70071;SDS011;57434;42.794;23.302;2022-10-31T12:44:29;10.07;;;3.60;;
70071;SDS011;57434;42.794;23.302;2022-10-31T12:58:03;9.10;;;3.25;;
70071;SDS011;57434;42.794;23.302;2022-10-31T13:00:41;6.33;;;1.60;;
70071;SDS011;57434;42.794;23.302;2022-10-31T13:03:25;8.20;;;1.75;;
70071;SDS011;57434;42.794;23.302;2022-10-31T13:05:58;5.35;;;1.15;;
70071;SDS011;57434;42.794;23.302;2022-10-31T13:08:33;7.57;;;2.63;;
70071;SDS011;57434;42.794;23.302;2022-10-31T13:14:06;4.13;;;1.13;;
70071;SDS011;57434;42.794;23.302;2022-10-31T13:16:52;8.63;;;2.17;;
70071;SDS011;57434;42.794;23.302;2022-10-31T13:19:36;6.88;;;1.40;;
70071;SDS011;57434;42.794;23.302;2022-10-31T13:22:08;6.90;;;1.27;;
70071;SDS011;57434;42.794;23.302;2022-10-31T13:24:38;6.70;;;1.40;;
70071;SDS011;57434;42.794;23.302;2022-10-31T13:27:12;6.50;;;1.27;;
70071;SDS011;57434;42.794;23.302;2022-10-31T13:32:23;8.60;;;1.52;;
70071;SDS011;57434;42.794;23.302;2022-10-31T13:34:55;4.40;;;1.17;;
70071;SDS011;57434;42.794;23.302;2022-10-31T13:37:39;7.95;;;1.70;;
70071;SDS011;57434;42.794;23.302;2022-10-31T13:46:00;9.25;;;2.85;;
70071;SDS011;57434;42.794;23.302;2022-10-31T13:50:56;7.72;;;1.25;;
70071;SDS011;57434;42.794;23.302;2022-10-31T13:53:37;5.93;;;1.40;;
70071;SDS011;57434;42.794;23.302;2022-10-31T13:56:18;10.13;;;2.22;;
70071;SDS011;57434;42.794;23.302;2022-10-31T13:58:57;8.73;;;1.50;;
70071;SDS011;57434;42.794;23.302;2022-10-31T14:01:37;7.28;;;1.20;;
70071;SDS011;57434;42.794;23.302;2022-10-31T14:04:20;7.45;;;1.27;;
70071;SDS011;57434;42.794;23.302;2022-10-31T14:09:36;8.05;;;1.33;;
70071;SDS011;57434;42.794;23.302;2022-10-31T14:12:07;5.03;;;1.67;;
70071;SDS011;57434;42.794;23.302;2022-10-31T14:14:44;6.93;;;1.50;;
70071;SDS011;57434;42.794;23.302;2022-10-31T14:17:22;7.63;;;1.50;;
70071;SDS011;57434;42.794;23.302;2022-10-31T14:20:02;5.07;;;1.47;;
70071;SDS011;57434;42.794;23.302;2022-10-31T14:22:49;5.53;;;1.45;;
70071;SDS011;57434;42.794;23.302;2022-10-31T14:25:35;7.55;;;1.83;;
70071;SDS011;57434;42.794;23.302;2022-10-31T14:28:17;7.80;;;1.50;;
70071;SDS011;57434;42.794;23.302;2022-10-31T14:30:54;6.45;;;1.90;;
70071;SDS011;57434;42.794;23.302;2022-10-31T14:33:24;10.83;;;2.47;;
70071;SDS011;57434;42.794;23.302;2022-10-31T14:39:02;16.58;;;4.53;;
70071;SDS011;57434;42.794;23.302;2022-10-31T14:44:23;14.32;;;4.43;;
70071;SDS011;57434;42.794;23.302;2022-10-31T14:50:37;19.35;;;7.07;;
70071;SDS011;57434;42.794;23.302;2022-10-31T14:52:54;55.17;;;20.05;;
70071;SDS011;57434;42.794;23.302;2022-10-31T14:55:24;82.88;;;26.50;;
70071;SDS011;57434;42.794;23.302;2022-10-31T14:57:54;169.50;;;35.70;;
70071;SDS011;57434;42.794;23.302;2022-10-31T15:00:31;71.10;;;22.97;;
70071;SDS011;57434;42.794;23.302;2022-10-31T15:05:33;58.60;;;18.40;;
70071;SDS011;57434;42.794;23.302;2022-10-31T15:08:02;60.28;;;18.75;;
70071;SDS011;57434;42.794;23.302;2022-10-31T15:10:32;16.50;;;5.97;;
70071;SDS011;57434;42.794;23.302;2022-10-31T15:13:10;40.13;;;14.20;;
70071;SDS011;57434;42.794;23.302;2022-10-31T15:15:44;37.05;;;13.02;;
70071;SDS011;57434;42.794;23.302;2022-10-31T15:18:18;44.42;;;14.52;;
70071;SDS011;57434;42.794;23.302;2022-10-31T15:20:50;32.92;;;11.23;;
70071;SDS011;57434;42.794;23.302;2022-10-31T15:23:23;28.50;;;10.10;;
70071;SDS011;57434;42.794;23.302;2022-10-31T15:26:00;33.10;;;9.50;;
70071;SDS011;57434;42.794;23.302;2022-10-31T15:28:29;29.20;;;10.65;;
70071;SDS011;57434;42.794;23.302;2022-10-31T15:30:58;39.53;;;13.85;;
70071;SDS011;57434;42.794;23.302;2022-10-31T15:33:31;41.20;;;14.98;;
70071;SDS011;57434;42.794;23.302;2022-10-31T15:36:18;49.22;;;18.52;;
70071;SDS011;57434;42.794;23.302;2022-10-31T15:38:55;60.43;;;24.37;;
70071;SDS011;57434;42.794;23.302;2022-10-31T15:44:03;366.63;;;57.53;;
70071;SDS011;57434;42.794;23.302;2022-10-31T15:46:38;466.95;;;67.57;;
70071;SDS011;57434;42.794;23.302;2022-10-31T15:49:12;266.48;;;41.03;;
70071;SDS011;57434;42.794;23.302;2022-10-31T15:51:55;87.50;;;19.53;;
70071;SDS011;57434;42.794;23.302;2022-10-31T15:54:24;53.50;;;17.55;;
70071;SDS011;57434;42.794;23.302;2022-10-31T15:56:52;52.17;;;18.73;;
70071;SDS011;57434;42.794;23.302;2022-10-31T15:59:20;48.15;;;17.50;;
70071;SDS011;57434;42.794;23.302;2022-10-31T16:02:00;46.10;;;18.98;;
70071;SDS011;57434;42.794;23.302;2022-10-31T16:04:29;32.60;;;12.57;;
70071;SDS011;57434;42.794;23.302;2022-10-31T16:10:20;14.00;;;3.25;;
70071;SDS011;57434;42.794;23.302;2022-10-31T16:12:50;13.05;;;2.53;;
70071;SDS011;57434;42.794;23.302;2022-10-31T16:15:19;15.68;;;3.05;;
70071;SDS011;57434;42.794;23.302;2022-10-31T16:17:48;10.50;;;2.63;;
70071;SDS011;57434;42.794;23.302;2022-10-31T16:20:21;18.08;;;2.78;;
70071;SDS011;57434;42.794;23.302;2022-10-31T16:22:54;10.65;;;2.67;;
70071;SDS011;57434;42.794;23.302;2022-10-31T16:25:28;10.52;;;2.00;;
70071;SDS011;57434;42.794;23.302;2022-10-31T16:28:04;14.05;;;2.40;;
70071;SDS011;57434;42.794;23.302;2022-10-31T16:33:34;8.98;;;1.90;;
70071;SDS011;57434;42.794;23.302;2022-10-31T16:39:02;8.45;;;1.95;;
70071;SDS011;57434;42.794;23.302;2022-10-31T16:41:30;12.70;;;2.30;;
70071;SDS011;57434;42.794;23.302;2022-10-31T16:44:01;18.07;;;4.00;;
70071;SDS011;57434;42.794;23.302;2022-10-31T16:46:30;10.18;;;3.30;;
70071;SDS011;57434;42.794;23.302;2022-10-31T16:48:57;9.75;;;3.72;;
70071;SDS011;57434;42.794;23.302;2022-10-31T16:51:24;25.67;;;12.23;;
70071;SDS011;57434;42.794;23.302;2022-10-31T16:53:51;12.25;;;5.40;;
70071;SDS011;57434;42.794;23.302;2022-10-31T16:56:25;10.53;;;3.03;;
70071;SDS011;57434;42.794;23.302;2022-10-31T16:58:56;7.70;;;2.10;;
70071;SDS011;57434;42.794;23.302;2022-10-31T17:01:24;12.38;;;2.63;;
70071;SDS011;57434;42.794;23.302;2022-10-31T17:06:27;12.32;;;1.92;;
70071;SDS011;57434;42.794;23.302;2022-10-31T17:09:03;16.37;;;4.80;;
70071;SDS011;57434;42.794;23.302;2022-10-31T17:11:45;11.15;;;3.72;;